sensor_id;sensor_type;location;lat;lon;timestamp;temperature;humidity
6654;DHT22;3363;50.942;7.034;2023-06-10T00:00:38;23.30;49.50
6654;DHT22;3363;50.942;7.034;2023-06-10T00:03:06;23.30;48.80
6654;DHT22;3363;50.942;7.034;2023-06-10T00:05:34;23.30;48.80
6654;DHT22;3363;50.942;7.034;2023-06-10T00:08:02;23.20;48.60
6654;DHT22;3363;50.942;7.034;2023-06-10T00:10:32;23.20;48.80
6654;DHT22;3363;50.942;7.034;2023-06-10T00:13:00;23.20;48.90
6654;DHT22;3363;50.942;7.034;2023-06-10T00:15:27;23.20;49.10
6654;DHT22;3363;50.942;7.034;2023-06-10T00:17:54;23.20;49.20
6654;DHT22;3363;50.942;7.034;2023-06-10T00:20:21;23.10;49.20
6654;DHT22;3363;50.942;7.034;2023-06-10T00:22:49;23.00;49.40
6654;DHT22;3363;50.942;7.034;2023-06-10T00:25:17;23.00;49.40
6654;DHT22;3363;50.942;7.034;2023-06-10T00:27:44;23.10;49.50
6654;DHT22;3363;50.942;7.034;2023-06-10T00:30:11;23.00;49.40
6654;DHT22;3363;50.942;7.034;2023-06-10T00:32:38;23.00;49.40
6654;DHT22;3363;50.942;7.034;2023-06-10T00:35:05;23.00;49.40
6654;DHT22;3363;50.942;7.034;2023-06-10T00:37:32;22.90;49.50
6654;DHT22;3363;50.942;7.034;2023-06-10T00:40:00;23.00;49.70
6654;DHT22;3363;50.942;7.034;2023-06-10T00:42:28;23.00;49.80
6654;DHT22;3363;50.942;7.034;2023-06-10T00:44:55;22.90;49.70
6654;DHT22;3363;50.942;7.034;2023-06-10T00:47:21;22.90;49.60
6654;DHT22;3363;50.942;7.034;2023-06-10T00:49:48;22.90;49.70
6654;DHT22;3363;50.942;7.034;2023-06-10T00:52:15;22.90;49.80
6654;DHT22;3363;50.942;7.034;2023-06-10T00:54:43;22.80;49.80
6654;DHT22;3363;50.942;7.034;2023-06-10T00:57:10;22.90;50.00
6654;DHT22;3363;50.942;7.034;2023-06-10T00:59:38;22.80;50.00
6654;DHT22;3363;50.942;7.034;2023-06-10T01:02:05;22.80;50.10
6654;DHT22;3363;50.942;7.034;2023-06-10T01:04:32;22.80;50.10
6654;DHT22;3363;50.942;7.034;2023-06-10T01:07:02;22.80;50.30
6654;DHT22;3363;50.942;7.034;2023-06-10T01:09:33;22.70;50.20
6654;DHT22;3363;50.942;7.034;2023-06-10T01:12:05;22.70;50.30
6654;DHT22;3363;50.942;7.034;2023-06-10T01:14:36;22.70;50.40
6654;DHT22;3363;50.942;7.034;2023-06-10T01:17:06;22.70;50.50
6654;DHT22;3363;50.942;7.034;2023-06-10T01:19:34;22.70;50.50
6654;DHT22;3363;50.942;7.034;2023-06-10T01:22:03;22.60;50.40
6654;DHT22;3363;50.942;7.034;2023-06-10T01:24:30;22.60;50.40
6654;DHT22;3363;50.942;7.034;2023-06-10T01:26:59;22.60;50.50
6654;DHT22;3363;50.942;7.034;2023-06-10T01:29:28;22.60;50.60
6654;DHT22;3363;50.942;7.034;2023-06-10T01:31:59;22.60;50.70
6654;DHT22;3363;50.942;7.034;2023-06-10T01:34:28;22.50;50.60
6654;DHT22;3363;50.942;7.034;2023-06-10T01:36:55;22.50;50.70
6654;DHT22;3363;50.942;7.034;2023-06-10T01:39:24;22.50;50.70
6654;DHT22;3363;50.942;7.034;2023-06-10T01:41:52;22.50;50.70
6654;DHT22;3363;50.942;7.034;2023-06-10T01:44:18;22.50;50.80
6654;DHT22;3363;50.942;7.034;2023-06-10T01:46:46;22.40;50.80
6654;DHT22;3363;50.942;7.034;2023-06-10T01:49:12;22.40;50.90
6654;DHT22;3363;50.942;7.034;2023-06-10T01:51:39;22.40;51.00
6654;DHT22;3363;50.942;7.034;2023-06-10T01:54:06;22.40;51.10
6654;DHT22;3363;50.942;7.034;2023-06-10T01:56:34;22.40;51.10
6654;DHT22;3363;50.942;7.034;2023-06-10T01:59:01;22.40;51.20
6654;DHT22;3363;50.942;7.034;2023-06-10T02:01:28;22.30;51.20
6654;DHT22;3363;50.942;7.034;2023-06-10T02:03:54;22.30;51.30
6654;DHT22;3363;50.942;7.034;2023-06-10T02:06:21;22.30;51.40
6654;DHT22;3363;50.942;7.034;2023-06-10T02:08:48;22.30;51.50
6654;DHT22;3363;50.942;7.034;2023-06-10T02:11:14;22.20;51.50
6654;DHT22;3363;50.942;7.034;2023-06-10T02:13:42;22.20;51.70
6654;DHT22;3363;50.942;7.034;2023-06-10T02:16:09;22.20;51.80
6654;DHT22;3363;50.942;7.034;2023-06-10T02:18:38;22.20;51.80
6654;DHT22;3363;50.942;7.034;2023-06-10T02:21:06;22.20;51.90
6654;DHT22;3363;50.942;7.034;2023-06-10T02:23:32;22.10;51.90
6654;DHT22;3363;50.942;7.034;2023-06-10T02:25:59;22.10;52.00
6654;DHT22;3363;50.942;7.034;2023-06-10T02:28:26;22.10;52.20
6654;DHT22;3363;50.942;7.034;2023-06-10T02:30:54;22.10;52.20
6654;DHT22;3363;50.942;7.034;2023-06-10T02:33:22;22.10;52.30
6654;DHT22;3363;50.942;7.034;2023-06-10T02:35:49;22.00;52.30
6654;DHT22;3363;50.942;7.034;2023-06-10T02:38:16;22.00;52.30
6654;DHT22;3363;50.942;7.034;2023-06-10T02:40:43;22.00;52.40
6654;DHT22;3363;50.942;7.034;2023-06-10T02:43:10;22.00;52.50
6654;DHT22;3363;50.942;7.034;2023-06-10T02:45:36;22.00;52.60
6654;DHT22;3363;50.942;7.034;2023-06-10T02:48:05;21.90;52.60
6654;DHT22;3363;50.942;7.034;2023-06-10T02:50:32;21.90;52.70
6654;DHT22;3363;50.942;7.034;2023-06-10T02:52:59;21.90;52.80
6654;DHT22;3363;50.942;7.034;2023-06-10T02:55:25;21.90;52.80
6654;DHT22;3363;50.942;7.034;2023-06-10T02:57:53;21.90;52.90
6654;DHT22;3363;50.942;7.034;2023-06-10T03:00:20;21.80;52.90
6654;DHT22;3363;50.942;7.034;2023-06-10T03:02:47;21.80;53.00
6654;DHT22;3363;50.942;7.034;2023-06-10T03:05:15;21.80;53.00
6654;DHT22;3363;50.942;7.034;2023-06-10T03:07:42;21.80;53.10
6654;DHT22;3363;50.942;7.034;2023-06-10T03:10:09;21.70;53.10
6654;DHT22;3363;50.942;7.034;2023-06-10T03:12:36;21.70;53.30
6654;DHT22;3363;50.942;7.034;2023-06-10T03:15:02;21.70;53.40
6654;DHT22;3363;50.942;7.034;2023-06-10T03:17:30;21.70;53.50
6654;DHT22;3363;50.942;7.034;2023-06-10T03:19:57;21.70;53.60
6654;DHT22;3363;50.942;7.034;2023-06-10T03:22:25;21.60;53.60
6654;DHT22;3363;50.942;7.034;2023-06-10T03:24:52;21.60;53.60
6654;DHT22;3363;50.942;7.034;2023-06-10T03:27:18;21.60;53.70
6654;DHT22;3363;50.942;7.034;2023-06-10T03:29:45;21.60;53.70
6654;DHT22;3363;50.942;7.034;2023-06-10T03:32:12;21.60;53.70
6654;DHT22;3363;50.942;7.034;2023-06-10T03:34:38;21.60;53.70
6654;DHT22;3363;50.942;7.034;2023-06-10T03:37:05;21.60;53.70
6654;DHT22;3363;50.942;7.034;2023-06-10T03:39:33;21.60;53.80
6654;DHT22;3363;50.942;7.034;2023-06-10T03:42:00;21.50;54.00
6654;DHT22;3363;50.942;7.034;2023-06-10T03:44:27;21.50;54.00
6654;DHT22;3363;50.942;7.034;2023-06-10T03:46:55;21.50;54.00
6654;DHT22;3363;50.942;7.034;2023-06-10T03:49:22;21.50;54.10
6654;DHT22;3363;50.942;7.034;2023-06-10T03:51:51;21.50;54.20
6654;DHT22;3363;50.942;7.034;2023-06-10T03:54:17;21.50;54.30
6654;DHT22;3363;50.942;7.034;2023-06-10T03:56:53;21.40;54.30
6654;DHT22;3363;50.942;7.034;2023-06-10T03:59:20;21.40;54.40
6654;DHT22;3363;50.942;7.034;2023-06-10T04:01:47;21.40;54.40
6654;DHT22;3363;50.942;7.034;2023-06-10T04:04:20;21.40;54.40
6654;DHT22;3363;50.942;7.034;2023-06-10T04:06:47;21.40;54.60
6654;DHT22;3363;50.942;7.034;2023-06-10T04:09:20;21.40;54.70
6654;DHT22;3363;50.942;7.034;2023-06-10T04:11:49;21.40;54.80
6654;DHT22;3363;50.942;7.034;2023-06-10T04:14:17;21.40;54.90
6654;DHT22;3363;50.942;7.034;2023-06-10T04:16:44;21.30;54.90
6654;DHT22;3363;50.942;7.034;2023-06-10T04:19:11;21.30;55.00
6654;DHT22;3363;50.942;7.034;2023-06-10T04:21:37;21.30;55.10
6654;DHT22;3363;50.942;7.034;2023-06-10T04:24:04;21.30;55.20
6654;DHT22;3363;50.942;7.034;2023-06-10T04:26:31;21.30;55.20
6654;DHT22;3363;50.942;7.034;2023-06-10T04:28:59;21.30;55.30
6654;DHT22;3363;50.942;7.034;2023-06-10T04:31:27;21.30;55.50
6654;DHT22;3363;50.942;7.034;2023-06-10T04:33:53;21.30;55.70
6654;DHT22;3363;50.942;7.034;2023-06-10T04:36:20;21.30;55.80
6654;DHT22;3363;50.942;7.034;2023-06-10T04:38:47;21.30;55.90
6654;DHT22;3363;50.942;7.034;2023-06-10T04:41:15;21.20;56.10
6654;DHT22;3363;50.942;7.034;2023-06-10T04:43:42;21.30;56.20
6654;DHT22;3363;50.942;7.034;2023-06-10T04:46:08;21.30;56.30
6654;DHT22;3363;50.942;7.034;2023-06-10T04:48:37;21.30;56.50
6654;DHT22;3363;50.942;7.034;2023-06-10T04:51:04;21.20;56.40
6654;DHT22;3363;50.942;7.034;2023-06-10T04:53:31;21.30;56.60
6654;DHT22;3363;50.942;7.034;2023-06-10T04:55:58;21.30;56.70
6654;DHT22;3363;50.942;7.034;2023-06-10T04:58:25;21.30;56.80
6654;DHT22;3363;50.942;7.034;2023-06-10T05:00:51;21.30;56.70
6654;DHT22;3363;50.942;7.034;2023-06-10T05:03:18;21.40;56.30
6654;DHT22;3363;50.942;7.034;2023-06-10T05:05:46;21.40;56.20
6654;DHT22;3363;50.942;7.034;2023-06-10T05:08:13;21.40;56.60
6654;DHT22;3363;50.942;7.034;2023-06-10T05:10:39;21.30;56.80
6654;DHT22;3363;50.942;7.034;2023-06-10T05:13:06;21.90;55.50
6654;DHT22;3363;50.942;7.034;2023-06-10T05:15:33;21.80;55.20
6654;DHT22;3363;50.942;7.034;2023-06-10T05:17:59;21.60;56.00
6654;DHT22;3363;50.942;7.034;2023-06-10T05:20:28;21.40;56.60
6654;DHT22;3363;50.942;7.034;2023-06-10T05:22:56;21.40;57.20
6654;DHT22;3363;50.942;7.034;2023-06-10T05:25:22;21.40;58.20
6654;DHT22;3363;50.942;7.034;2023-06-10T05:27:49;21.30;57.60
6654;DHT22;3363;50.942;7.034;2023-06-10T05:30:16;21.30;57.70
6654;DHT22;3363;50.942;7.034;2023-06-10T05:32:43;21.70;57.30
6654;DHT22;3363;50.942;7.034;2023-06-10T05:35:10;21.80;56.40
6654;DHT22;3363;50.942;7.034;2023-06-10T05:37:37;21.70;56.70
6654;DHT22;3363;50.942;7.034;2023-06-10T05:40:06;21.60;56.90
6654;DHT22;3363;50.942;7.034;2023-06-10T05:42:33;21.70;57.00
6654;DHT22;3363;50.942;7.034;2023-06-10T05:44:59;21.50;57.40
6654;DHT22;3363;50.942;7.034;2023-06-10T05:47:26;21.60;57.50
6654;DHT22;3363;50.942;7.034;2023-06-10T05:49:53;21.60;57.60
6654;DHT22;3363;50.942;7.034;2023-06-10T05:52:20;22.00;56.30
6654;DHT22;3363;50.942;7.034;2023-06-10T05:54:47;21.90;56.70
6654;DHT22;3363;50.942;7.034;2023-06-10T05:57:15;22.00;56.50
6654;DHT22;3363;50.942;7.034;2023-06-10T05:59:42;22.70;55.20
6654;DHT22;3363;50.942;7.034;2023-06-10T06:02:09;23.60;52.30
6654;DHT22;3363;50.942;7.034;2023-06-10T06:04:35;24.40;50.00
6654;DHT22;3363;50.942;7.034;2023-06-10T06:07:03;23.60;50.90
6654;DHT22;3363;50.942;7.034;2023-06-10T06:09:30;22.80;52.30
6654;DHT22;3363;50.942;7.034;2023-06-10T06:11:56;22.30;54.00
6654;DHT22;3363;50.942;7.034;2023-06-10T06:14:24;22.10;54.90
6654;DHT22;3363;50.942;7.034;2023-06-10T06:16:51;22.00;55.10
6654;DHT22;3363;50.942;7.034;2023-06-10T06:19:18;22.40;54.60
6654;DHT22;3363;50.942;7.034;2023-06-10T06:21:45;22.50;54.00
6654;DHT22;3363;50.942;7.034;2023-06-10T06:24:11;26.50;45.30
6654;DHT22;3363;50.942;7.034;2023-06-10T06:26:38;28.40;39.20
6654;DHT22;3363;50.942;7.034;2023-06-10T06:29:05;29.70;35.50
6654;DHT22;3363;50.942;7.034;2023-06-10T06:31:33;30.80;29.00
6654;DHT22;3363;50.942;7.034;2023-06-10T06:33:59;32.00;29.90
6654;DHT22;3363;50.942;7.034;2023-06-10T06:36:26;32.80;28.40
6654;DHT22;3363;50.942;7.034;2023-06-10T06:38:53;33.20;27.10
6654;DHT22;3363;50.942;7.034;2023-06-10T06:41:19;33.40;26.90
6654;DHT22;3363;50.942;7.034;2023-06-10T06:43:47;33.70;26.50
6654;DHT22;3363;50.942;7.034;2023-06-10T06:46:13;33.10;25.10
6654;DHT22;3363;50.942;7.034;2023-06-10T06:48:42;33.30;26.60
6654;DHT22;3363;50.942;7.034;2023-06-10T06:51:09;33.10;26.60
6654;DHT22;3363;50.942;7.034;2023-06-10T06:53:36;33.00;26.80
6654;DHT22;3363;50.942;7.034;2023-06-10T06:56:08;32.80;26.30
6654;DHT22;3363;50.942;7.034;2023-06-10T06:58:34;32.10;28.40
6654;DHT22;3363;50.942;7.034;2023-06-10T07:01:01;30.60;29.60
6654;DHT22;3363;50.942;7.034;2023-06-10T07:10:07;24.20;44.80
6654;DHT22;3363;50.942;7.034;2023-06-10T07:13:17;23.40;48.20
6654;DHT22;3363;50.942;7.034;2023-06-10T07:22:25;22.50;50.10
6654;DHT22;3363;50.942;7.034;2023-06-10T07:28:33;22.50;51.30
6654;DHT22;3363;50.942;7.034;2023-06-10T07:40:21;22.50;51.00
6654;DHT22;3363;50.942;7.034;2023-06-10T07:45:01;22.50;49.70
6654;DHT22;3363;50.942;7.034;2023-06-10T07:45:59;22.50;49.80
6654;DHT22;3363;50.942;7.034;2023-06-10T07:48:26;22.60;50.40
6654;DHT22;3363;50.942;7.034;2023-06-10T07:50:53;22.60;51.20
6654;DHT22;3363;50.942;7.034;2023-06-10T07:53:19;22.60;53.10
6654;DHT22;3363;50.942;7.034;2023-06-10T07:55:48;22.60;51.80
6654;DHT22;3363;50.942;7.034;2023-06-10T07:58:15;22.70;51.30
6654;DHT22;3363;50.942;7.034;2023-06-10T08:00:42;22.70;50.80
6654;DHT22;3363;50.942;7.034;2023-06-10T08:03:13;22.70;49.40
6654;DHT22;3363;50.942;7.034;2023-06-10T08:05:39;22.80;51.20
6654;DHT22;3363;50.942;7.034;2023-06-10T08:08:06;23.00;51.20
6654;DHT22;3363;50.942;7.034;2023-06-10T08:10:35;22.90;51.60
6654;DHT22;3363;50.942;7.034;2023-06-10T08:13:02;22.90;52.00
6654;DHT22;3363;50.942;7.034;2023-06-10T08:15:32;22.90;55.10
6654;DHT22;3363;50.942;7.034;2023-06-10T08:17:59;23.00;54.30
6654;DHT22;3363;50.942;7.034;2023-06-10T08:20:29;23.00;56.40
6654;DHT22;3363;50.942;7.034;2023-06-10T08:22:57;23.00;54.20
6654;DHT22;3363;50.942;7.034;2023-06-10T08:25:24;23.20;48.90
6654;DHT22;3363;50.942;7.034;2023-06-10T08:27:57;23.20;49.60
6654;DHT22;3363;50.942;7.034;2023-06-10T08:30:32;23.20;52.00
6654;DHT22;3363;50.942;7.034;2023-06-10T08:33:02;23.20;50.20
6654;DHT22;3363;50.942;7.034;2023-06-10T08:35:35;23.40;44.30
6654;DHT22;3363;50.942;7.034;2023-06-10T08:38:07;23.50;48.00
6654;DHT22;3363;50.942;7.034;2023-06-10T08:40:38;23.40;49.80
6654;DHT22;3363;50.942;7.034;2023-06-10T08:43:05;23.50;48.40
6654;DHT22;3363;50.942;7.034;2023-06-10T08:45:32;23.60;48.00
6654;DHT22;3363;50.942;7.034;2023-06-10T08:48:01;23.90;46.10
6654;DHT22;3363;50.942;7.034;2023-06-10T08:50:32;24.00;46.10
6654;DHT22;3363;50.942;7.034;2023-06-10T08:53:02;24.10;49.80
6654;DHT22;3363;50.942;7.034;2023-06-10T08:55:31;24.30;43.80
6654;DHT22;3363;50.942;7.034;2023-06-10T08:57:59;24.20;46.10
6654;DHT22;3363;50.942;7.034;2023-06-10T09:00:26;24.50;44.50
6654;DHT22;3363;50.942;7.034;2023-06-10T09:02:53;24.40;45.70
6654;DHT22;3363;50.942;7.034;2023-06-10T09:05:19;24.40;44.80
6654;DHT22;3363;50.942;7.034;2023-06-10T09:07:47;24.50;46.40
6654;DHT22;3363;50.942;7.034;2023-06-10T09:10:15;24.70;44.00
6654;DHT22;3363;50.942;7.034;2023-06-10T09:12:42;24.70;42.40
6654;DHT22;3363;50.942;7.034;2023-06-10T09:15:09;24.80;42.70
6654;DHT22;3363;50.942;7.034;2023-06-10T09:17:37;24.70;42.70
6654;DHT22;3363;50.942;7.034;2023-06-10T09:20:06;24.80;43.20
6654;DHT22;3363;50.942;7.034;2023-06-10T09:22:33;25.10;41.00
6654;DHT22;3363;50.942;7.034;2023-06-10T09:25:03;25.10;44.50
6654;DHT22;3363;50.942;7.034;2023-06-10T09:27:32;25.10;43.30
6654;DHT22;3363;50.942;7.034;2023-06-10T09:29:58;25.20;42.50
6654;DHT22;3363;50.942;7.034;2023-06-10T09:32:25;25.30;41.40
6654;DHT22;3363;50.942;7.034;2023-06-10T09:34:52;25.10;43.60
6654;DHT22;3363;50.942;7.034;2023-06-10T09:37:19;25.40;43.30
6654;DHT22;3363;50.942;7.034;2023-06-10T09:39:56;25.50;42.40
6654;DHT22;3363;50.942;7.034;2023-06-10T09:42:26;25.60;43.80
6654;DHT22;3363;50.942;7.034;2023-06-10T09:44:56;25.90;40.60
6654;DHT22;3363;50.942;7.034;2023-06-10T09:47:22;25.90;44.10
6654;DHT22;3363;50.942;7.034;2023-06-10T09:49:49;25.90;44.00
6654;DHT22;3363;50.942;7.034;2023-06-10T09:52:21;26.00;40.00
6654;DHT22;3363;50.942;7.034;2023-06-10T09:54:47;26.10;41.10
6654;DHT22;3363;50.942;7.034;2023-06-10T09:57:14;26.10;40.60
6654;DHT22;3363;50.942;7.034;2023-06-10T09:59:43;26.20;40.50
6654;DHT22;3363;50.942;7.034;2023-06-10T10:02:14;26.40;39.90
6654;DHT22;3363;50.942;7.034;2023-06-10T10:04:41;26.50;40.60
6654;DHT22;3363;50.942;7.034;2023-06-10T10:07:08;26.40;41.80
6654;DHT22;3363;50.942;7.034;2023-06-10T10:09:35;26.30;41.20
6654;DHT22;3363;50.942;7.034;2023-06-10T10:12:02;26.30;40.60
6654;DHT22;3363;50.942;7.034;2023-06-10T10:14:29;26.30;41.00
6654;DHT22;3363;50.942;7.034;2023-06-10T10:16:58;26.40;40.50
6654;DHT22;3363;50.942;7.034;2023-06-10T10:19:28;26.40;40.20
6654;DHT22;3363;50.942;7.034;2023-06-10T10:21:56;26.50;39.20
6654;DHT22;3363;50.942;7.034;2023-06-10T10:24:30;26.50;40.80
6654;DHT22;3363;50.942;7.034;2023-06-10T10:26:58;26.60;40.90
6654;DHT22;3363;50.942;7.034;2023-06-10T10:29:27;26.70;38.00
6654;DHT22;3363;50.942;7.034;2023-06-10T10:31:56;26.90;39.80
6654;DHT22;3363;50.942;7.034;2023-06-10T10:34:24;26.90;39.20
6654;DHT22;3363;50.942;7.034;2023-06-10T10:36:52;26.90;40.50
6654;DHT22;3363;50.942;7.034;2023-06-10T10:39:19;26.90;41.10
6654;DHT22;3363;50.942;7.034;2023-06-10T10:41:46;27.00;38.60
6654;DHT22;3363;50.942;7.034;2023-06-10T10:44:13;27.10;34.30
6654;DHT22;3363;50.942;7.034;2023-06-10T10:46:43;27.10;37.80
6654;DHT22;3363;50.942;7.034;2023-06-10T10:49:11;26.90;39.00
6654;DHT22;3363;50.942;7.034;2023-06-10T10:51:38;26.90;35.80
6654;DHT22;3363;50.942;7.034;2023-06-10T10:54:21;27.00;38.20
6654;DHT22;3363;50.942;7.034;2023-06-10T10:57:09;27.10;37.70
6654;DHT22;3363;50.942;7.034;2023-06-10T10:59:42;27.20;37.20
6654;DHT22;3363;50.942;7.034;2023-06-10T11:02:09;27.30;35.30
6654;DHT22;3363;50.942;7.034;2023-06-10T11:04:36;27.40;33.90
6654;DHT22;3363;50.942;7.034;2023-06-10T11:07:05;27.50;28.40
6654;DHT22;3363;50.942;7.034;2023-06-10T11:09:33;27.40;34.00
6654;DHT22;3363;50.942;7.034;2023-06-10T11:12:00;27.30;35.00
6654;DHT22;3363;50.942;7.034;2023-06-10T11:14:27;27.30;34.50
6654;DHT22;3363;50.942;7.034;2023-06-10T11:16:56;27.20;32.80
6654;DHT22;3363;50.942;7.034;2023-06-10T11:19:32;27.10;33.90
6654;DHT22;3363;50.942;7.034;2023-06-10T11:21:59;27.10;36.80
6654;DHT22;3363;50.942;7.034;2023-06-10T11:24:26;27.00;35.60
6654;DHT22;3363;50.942;7.034;2023-06-10T11:26:54;27.10;35.20
6654;DHT22;3363;50.942;7.034;2023-06-10T11:29:21;27.20;37.40
6654;DHT22;3363;50.942;7.034;2023-06-10T11:31:49;27.20;35.40
6654;DHT22;3363;50.942;7.034;2023-06-10T11:34:21;27.20;30.20
6654;DHT22;3363;50.942;7.034;2023-06-10T11:36:48;27.00;41.70
6654;DHT22;3363;50.942;7.034;2023-06-10T11:39:15;26.90;37.40
6654;DHT22;3363;50.942;7.034;2023-06-10T11:41:42;26.90;38.10
6654;DHT22;3363;50.942;7.034;2023-06-10T11:44:10;26.90;36.70
6654;DHT22;3363;50.942;7.034;2023-06-10T11:46:37;27.10;37.90
6654;DHT22;3363;50.942;7.034;2023-06-10T11:49:06;27.20;31.40
6654;DHT22;3363;50.942;7.034;2023-06-10T11:51:34;27.30;36.50
6654;DHT22;3363;50.942;7.034;2023-06-10T11:54:01;27.40;35.00
6654;DHT22;3363;50.942;7.034;2023-06-10T11:56:28;27.60;36.30
6654;DHT22;3363;50.942;7.034;2023-06-10T11:58:55;27.80;34.20
6654;DHT22;3363;50.942;7.034;2023-06-10T12:01:24;28.00;31.40
6654;DHT22;3363;50.942;7.034;2023-06-10T12:04:00;27.90;34.30
6654;DHT22;3363;50.942;7.034;2023-06-10T12:06:28;27.90;33.30
6654;DHT22;3363;50.942;7.034;2023-06-10T12:09:03;27.70;37.40
6654;DHT22;3363;50.942;7.034;2023-06-10T12:11:30;27.60;32.40
6654;DHT22;3363;50.942;7.034;2023-06-10T12:13:57;27.70;34.20
6654;DHT22;3363;50.942;7.034;2023-06-10T12:16:25;27.90;29.40
6654;DHT22;3363;50.942;7.034;2023-06-10T12:19:00;28.00;34.40
6654;DHT22;3363;50.942;7.034;2023-06-10T12:21:27;28.00;34.60
6654;DHT22;3363;50.942;7.034;2023-06-10T12:24:00;28.20;28.80
6654;DHT22;3363;50.942;7.034;2023-06-10T12:26:33;28.10;29.70
6654;DHT22;3363;50.942;7.034;2023-06-10T12:29:00;28.00;26.90
6654;DHT22;3363;50.942;7.034;2023-06-10T12:31:28;27.80;31.10
6654;DHT22;3363;50.942;7.034;2023-06-10T12:34:07;27.50;32.90
6654;DHT22;3363;50.942;7.034;2023-06-10T12:36:34;27.50;30.00
6654;DHT22;3363;50.942;7.034;2023-06-10T12:39:02;27.70;30.00
6654;DHT22;3363;50.942;7.034;2023-06-10T12:41:29;27.80;31.80
6654;DHT22;3363;50.942;7.034;2023-06-10T12:43:57;27.70;29.10
6654;DHT22;3363;50.942;7.034;2023-06-10T12:46:24;27.80;30.00
6654;DHT22;3363;50.942;7.034;2023-06-10T12:48:52;27.70;27.80
6654;DHT22;3363;50.942;7.034;2023-06-10T12:51:20;27.90;27.70
6654;DHT22;3363;50.942;7.034;2023-06-10T12:53:46;28.10;30.70
6654;DHT22;3363;50.942;7.034;2023-06-10T12:56:13;28.20;30.00
6654;DHT22;3363;50.942;7.034;2023-06-10T12:58:40;28.30;26.80
6654;DHT22;3363;50.942;7.034;2023-06-10T13:01:06;28.50;29.50
6654;DHT22;3363;50.942;7.034;2023-06-10T13:03:34;28.50;27.50
6654;DHT22;3363;50.942;7.034;2023-06-10T13:06:02;28.60;28.70
6654;DHT22;3363;50.942;7.034;2023-06-10T13:08:29;28.70;24.90
6654;DHT22;3363;50.942;7.034;2023-06-10T13:10:56;28.70;27.70
6654;DHT22;3363;50.942;7.034;2023-06-10T13:13:22;28.60;30.60
6654;DHT22;3363;50.942;7.034;2023-06-10T13:15:49;28.40;29.70
6654;DHT22;3363;50.942;7.034;2023-06-10T13:18:17;28.20;30.00
6654;DHT22;3363;50.942;7.034;2023-06-10T13:20:44;27.90;27.90
6654;DHT22;3363;50.942;7.034;2023-06-10T13:23:12;27.80;32.80
6654;DHT22;3363;50.942;7.034;2023-06-10T13:25:39;27.80;34.00
6654;DHT22;3363;50.942;7.034;2023-06-10T13:28:06;27.80;33.60
6654;DHT22;3363;50.942;7.034;2023-06-10T13:30:32;28.00;30.70
6654;DHT22;3363;50.942;7.034;2023-06-10T13:32:59;28.20;30.00
6654;DHT22;3363;50.942;7.034;2023-06-10T13:35:26;28.20;28.60
6654;DHT22;3363;50.942;7.034;2023-06-10T13:37:52;28.00;29.80
6654;DHT22;3363;50.942;7.034;2023-06-10T13:40:21;27.70;31.30
6654;DHT22;3363;50.942;7.034;2023-06-10T13:42:48;27.80;28.30
6654;DHT22;3363;50.942;7.034;2023-06-10T13:45:16;28.10;28.00
6654;DHT22;3363;50.942;7.034;2023-06-10T13:47:43;28.40;27.20
6654;DHT22;3363;50.942;7.034;2023-06-10T13:50:10;28.60;28.00
6654;DHT22;3363;50.942;7.034;2023-06-10T13:52:36;28.70;24.80
6654;DHT22;3363;50.942;7.034;2023-06-10T13:55:03;28.80;24.00
6654;DHT22;3363;50.942;7.034;2023-06-10T13:57:31;28.90;26.60
6654;DHT22;3363;50.942;7.034;2023-06-10T13:59:58;29.00;23.90
6654;DHT22;3363;50.942;7.034;2023-06-10T14:02:25;29.10;26.80
6654;DHT22;3363;50.942;7.034;2023-06-10T14:04:51;29.00;25.60
6654;DHT22;3363;50.942;7.034;2023-06-10T14:07:18;29.00;24.90
6654;DHT22;3363;50.942;7.034;2023-06-10T14:09:45;29.00;25.60
6654;DHT22;3363;50.942;7.034;2023-06-10T14:12:11;29.00;24.70
6654;DHT22;3363;50.942;7.034;2023-06-10T14:14:39;29.00;28.90
6654;DHT22;3363;50.942;7.034;2023-06-10T14:17:06;29.00;27.60
6654;DHT22;3363;50.942;7.034;2023-06-10T14:19:33;29.20;24.80
6654;DHT22;3363;50.942;7.034;2023-06-10T14:22:00;29.50;28.00
6654;DHT22;3363;50.942;7.034;2023-06-10T14:24:26;29.40;26.40
6654;DHT22;3363;50.942;7.034;2023-06-10T14:26:53;29.50;25.50
6654;DHT22;3363;50.942;7.034;2023-06-10T14:29:20;29.40;22.50
6654;DHT22;3363;50.942;7.034;2023-06-10T14:31:48;29.40;26.40
6654;DHT22;3363;50.942;7.034;2023-06-10T14:34:15;29.30;24.10
6654;DHT22;3363;50.942;7.034;2023-06-10T14:36:41;29.30;23.00
6654;DHT22;3363;50.942;7.034;2023-06-10T14:39:11;29.30;25.80
6654;DHT22;3363;50.942;7.034;2023-06-10T14:41:38;29.10;24.70
6654;DHT22;3363;50.942;7.034;2023-06-10T14:44:04;29.20;26.60
6654;DHT22;3363;50.942;7.034;2023-06-10T14:46:31;29.30;25.50
6654;DHT22;3363;50.942;7.034;2023-06-10T14:48:59;29.20;25.60
6654;DHT22;3363;50.942;7.034;2023-06-10T14:51:27;29.10;24.60
6654;DHT22;3363;50.942;7.034;2023-06-10T14:53:54;28.90;26.00
6654;DHT22;3363;50.942;7.034;2023-06-10T14:56:21;28.90;27.50
6654;DHT22;3363;50.942;7.034;2023-06-10T14:58:47;28.90;24.90
6654;DHT22;3363;50.942;7.034;2023-06-10T15:01:14;29.00;23.60
6654;DHT22;3363;50.942;7.034;2023-06-10T15:03:41;29.00;26.70
6654;DHT22;3363;50.942;7.034;2023-06-10T15:06:09;28.80;26.80
6654;DHT22;3363;50.942;7.034;2023-06-10T15:08:35;28.60;30.10
6654;DHT22;3363;50.942;7.034;2023-06-10T15:11:02;28.70;26.90
6654;DHT22;3363;50.942;7.034;2023-06-10T15:13:29;28.70;25.00
6654;DHT22;3363;50.942;7.034;2023-06-10T15:15:56;28.90;25.10
6654;DHT22;3363;50.942;7.034;2023-06-10T15:18:22;28.70;26.80
6654;DHT22;3363;50.942;7.034;2023-06-10T15:20:49;29.00;24.00
6654;DHT22;3363;50.942;7.034;2023-06-10T15:23:17;29.00;25.10
6654;DHT22;3363;50.942;7.034;2023-06-10T15:25:44;28.80;25.40
6654;DHT22;3363;50.942;7.034;2023-06-10T15:28:12;28.80;26.30
6654;DHT22;3363;50.942;7.034;2023-06-10T15:30:38;28.80;25.30
6654;DHT22;3363;50.942;7.034;2023-06-10T15:33:05;28.60;24.50
6654;DHT22;3363;50.942;7.034;2023-06-10T15:35:32;28.30;26.80
6654;DHT22;3363;50.942;7.034;2023-06-10T15:37:59;28.30;25.10
6654;DHT22;3363;50.942;7.034;2023-06-10T15:40:27;28.00;26.30
6654;DHT22;3363;50.942;7.034;2023-06-10T15:42:54;27.90;26.50
6654;DHT22;3363;50.942;7.034;2023-06-10T15:45:21;28.20;28.50
6654;DHT22;3363;50.942;7.034;2023-06-10T15:47:47;28.20;29.30
6654;DHT22;3363;50.942;7.034;2023-06-10T15:50:14;28.40;26.90
6654;DHT22;3363;50.942;7.034;2023-06-10T15:52:41;28.40;29.50
6654;DHT22;3363;50.942;7.034;2023-06-10T15:55:08;28.40;26.10
6654;DHT22;3363;50.942;7.034;2023-06-10T15:57:36;28.50;26.10
6654;DHT22;3363;50.942;7.034;2023-06-10T16:00:03;28.60;26.30
6654;DHT22;3363;50.942;7.034;2023-06-10T16:02:32;28.70;25.20
6654;DHT22;3363;50.942;7.034;2023-06-10T16:04:59;28.70;22.70
6654;DHT22;3363;50.942;7.034;2023-06-10T16:07:26;28.70;23.30
6654;DHT22;3363;50.942;7.034;2023-06-10T16:09:52;28.80;27.40
6654;DHT22;3363;50.942;7.034;2023-06-10T16:12:20;28.50;28.10
6654;DHT22;3363;50.942;7.034;2023-06-10T16:14:48;28.70;21.20
6654;DHT22;3363;50.942;7.034;2023-06-10T16:17:14;28.60;24.80
6654;DHT22;3363;50.942;7.034;2023-06-10T16:19:41;28.60;24.80
6654;DHT22;3363;50.942;7.034;2023-06-10T16:22:08;28.70;23.40
6654;DHT22;3363;50.942;7.034;2023-06-10T16:24:34;28.70;24.20
6654;DHT22;3363;50.942;7.034;2023-06-10T16:27:01;28.40;25.30
6654;DHT22;3363;50.942;7.034;2023-06-10T16:29:28;28.50;25.20
6654;DHT22;3363;50.942;7.034;2023-06-10T16:31:56;28.50;28.30